createdAt,value
2018-12-05T00:00:01.748Z,949.6
2018-12-05T00:03:07.823Z,949.6
2018-12-05T00:06:13.812Z,949.7
2018-12-05T00:09:19.832Z,949.6
2018-12-05T00:12:25.790Z,949.7
2018-12-05T00:15:31.923Z,949.6
2018-12-05T00:18:37.799Z,949.7
2018-12-05T00:21:46.525Z,949.8
2018-12-05T00:24:52.690Z,949.7
2018-12-05T00:27:58.781Z,949.8
2018-12-05T00:31:04.710Z,949.7
2018-12-05T00:34:10.717Z,949.8
2018-12-05T00:37:16.795Z,949.8
2018-12-05T00:40:23.002Z,949.8
2018-12-05T00:43:28.947Z,949.8
2018-12-05T00:46:34.910Z,949.9
2018-12-05T00:49:40.975Z,949.8
2018-12-05T00:52:46.942Z,949.9
2018-12-05T00:55:53.000Z,949.9
2018-12-05T00:58:59.055Z,949.9
2018-12-05T01:02:04.930Z,949.9
2018-12-05T01:05:10.904Z,949.8
2018-12-05T01:08:16.939Z,949.9
2018-12-05T01:11:22.808Z,949.9
2018-12-05T01:14:28.756Z,949.8
2018-12-05T01:17:34.709Z,949.9
2018-12-05T01:20:40.675Z,949.9
2018-12-05T01:23:46.643Z,949.8
2018-12-05T01:26:52.693Z,949.9
2018-12-05T01:29:58.564Z,949.8
2018-12-05T01:33:04.719Z,949.8
2018-12-05T01:36:10.613Z,950
2018-12-05T01:39:16.733Z,949.9
2018-12-05T01:42:22.605Z,949.9
2018-12-05T01:45:28.548Z,949.9
2018-12-05T01:48:37.261Z,949.9
2018-12-05T01:51:43.233Z,949.9
2018-12-05T01:54:49.115Z,949.9
2018-12-05T01:57:55.251Z,949.9
2018-12-05T02:01:01.212Z,950
2018-12-05T02:04:07.082Z,950
2018-12-05T02:07:13.029Z,950
2018-12-05T02:10:19.201Z,950
2018-12-05T02:13:26.439Z,950
2018-12-05T02:16:32.341Z,950
2018-12-05T02:19:38.213Z,950.1
2018-12-05T02:22:44.260Z,950.1
2018-12-05T02:25:50.129Z,950.1
2018-12-05T02:28:56.078Z,950.1
2018-12-05T02:32:01.981Z,950.1
2018-12-05T02:35:08.004Z,950.2
2018-12-05T02:38:13.950Z,950.2
2018-12-05T02:41:19.837Z,950.2
2018-12-05T02:44:25.984Z,950.2
2018-12-05T02:47:31.874Z,950.2
2018-12-05T02:50:37.995Z,950.2
2018-12-05T02:53:43.951Z,950.3
2018-12-05T02:56:50.031Z,950.3
2018-12-05T02:59:56.023Z,950.3
2018-12-05T03:03:01.976Z,950.3
2018-12-05T03:06:08.015Z,950.4
2018-12-05T03:09:14.070Z,950.4
2018-12-05T03:12:20.118Z,950.4
2018-12-05T03:15:26.081Z,950.4
2018-12-05T03:18:32.159Z,950.4
2018-12-05T03:21:38.009Z,950.5
2018-12-05T03:24:43.954Z,950.5
2018-12-05T03:27:49.919Z,950.5
2018-12-05T03:30:55.890Z,950.5
2018-12-05T03:34:02.039Z,950.6
2018-12-05T03:37:08.095Z,950.5
2018-12-05T03:40:14.039Z,950.7
2018-12-05T03:43:20.023Z,950.6
2018-12-05T03:46:25.978Z,950.7
2018-12-05T03:49:32.037Z,950.7
2018-12-05T03:52:38.003Z,950.7
2018-12-05T03:55:43.906Z,950.7
2018-12-05T03:58:52.881Z,950.7
2018-12-05T04:01:58.863Z,950.8
2018-12-05T04:05:04.848Z,950.8
2018-12-05T04:08:10.969Z,950.9
2018-12-05T04:11:16.887Z,950.8
2018-12-05T04:14:22.892Z,950.8
2018-12-05T04:17:29.156Z,950.8
2018-12-05T04:20:35.217Z,950.9
2018-12-05T04:23:41.127Z,950.9
2018-12-05T04:26:47.138Z,950.9
2018-12-05T04:29:53.068Z,951
2018-12-05T04:32:59.049Z,950.9
2018-12-05T04:36:05.181Z,951
2018-12-05T04:39:11.182Z,951
2018-12-05T04:42:17.117Z,951
2018-12-05T04:45:23.242Z,951
2018-12-05T04:48:29.125Z,951
2018-12-05T04:51:35.121Z,951
2018-12-05T04:54:41.070Z,951
2018-12-05T04:57:46.956Z,951.1
2018-12-05T05:00:52.897Z,951.1
2018-12-05T05:03:58.771Z,951.1
2018-12-05T05:07:04.715Z,951.2
2018-12-05T05:10:12.512Z,951.3
2018-12-05T05:13:18.389Z,951.2
2018-12-05T05:16:24.478Z,951.2
2018-12-05T05:19:30.439Z,951.2
2018-12-05T05:22:36.402Z,951.2
2018-12-05T05:25:42.562Z,951.3
2018-12-05T05:28:48.623Z,951.3
2018-12-05T05:31:54.638Z,951.5
2018-12-05T05:35:00.570Z,951.4
2018-12-05T05:38:06.560Z,951.4
2018-12-05T05:41:12.513Z,951.5
2018-12-05T05:44:18.466Z,951.5
2018-12-05T05:47:24.432Z,951.5
2018-12-05T05:50:30.307Z,951.6
2018-12-05T05:53:39.241Z,951.6
2018-12-05T05:56:46.605Z,951.7
2018-12-05T05:59:52.569Z,951.8
2018-12-05T06:02:58.523Z,951.8
2018-12-05T06:06:04.466Z,951.8
2018-12-05T06:09:10.444Z,951.9
2018-12-05T06:16:22.252Z,951.9
2018-12-05T06:19:28.172Z,952
2018-12-05T06:22:34.081Z,952
2018-12-05T06:25:40.248Z,952
2018-12-05T06:28:46.120Z,952.2
2018-12-05T06:31:52.164Z,952.1
2018-12-05T06:34:58.133Z,952.2
2018-12-05T06:38:04.139Z,952.3
2018-12-05T06:41:10.378Z,952.4
2018-12-05T06:44:16.223Z,952.4
2018-12-05T06:47:22.221Z,952.5
2018-12-05T06:50:29.871Z,952.5
2018-12-05T06:53:36.855Z,952.6
2018-12-05T06:56:42.738Z,952.5
2018-12-05T06:59:48.973Z,952.6
2018-12-05T07:02:55.039Z,952.6
2018-12-05T07:06:00.923Z,952.6
2018-12-05T07:09:06.855Z,952.6
2018-12-05T07:12:12.812Z,952.8
2018-12-05T07:15:18.803Z,952.7
2018-12-05T07:18:24.731Z,952.8
2018-12-05T07:21:30.907Z,952.8
2018-12-05T07:24:36.781Z,952.8
2018-12-05T07:27:42.974Z,952.8
2018-12-05T07:30:49.088Z,952.8
2018-12-05T07:33:55.351Z,952.8
2018-12-05T07:37:01.515Z,953
2018-12-05T07:40:08.439Z,952.9
2018-12-05T07:43:14.453Z,953
2018-12-05T07:46:20.725Z,952.9
2018-12-05T07:49:26.679Z,953
2018-12-05T07:52:32.807Z,953.1
2018-12-05T07:55:38.955Z,953.1
2018-12-05T07:58:45.291Z,953.1
2018-12-05T08:01:56.010Z,953.2
2018-12-05T08:05:02.926Z,953.3
2018-12-05T08:08:09.172Z,953.3
2018-12-05T08:11:16.818Z,953.3
2018-12-05T08:14:24.101Z,953.4
2018-12-05T08:17:30.501Z,953.5
2018-12-05T08:20:37.709Z,953.6
2018-12-05T08:23:45.006Z,953.6
2018-12-05T08:26:52.083Z,953.6
2018-12-05T08:29:58.862Z,953.7
2018-12-05T08:33:06.148Z,953.7
2018-12-05T08:36:13.656Z,953.9
2018-12-05T08:39:20.433Z,953.8
2018-12-05T08:42:26.795Z,953.9
2018-12-05T08:45:33.677Z,953.9
2018-12-05T08:48:40.615Z,953.9
2018-12-05T08:51:48.051Z,953.9
2018-12-05T08:54:55.464Z,953.9
2018-12-05T08:58:02.213Z,953.9
2018-12-05T09:01:12.691Z,954
2018-12-05T09:04:20.033Z,954
2018-12-05T09:07:28.593Z,954
2018-12-05T09:10:36.015Z,954
2018-12-05T09:13:41.994Z,954
2018-12-05T09:16:48.157Z,954
2018-12-05T09:19:54.368Z,954
2018-12-05T09:23:00.585Z,954
2018-12-05T09:26:06.801Z,953.9
2018-12-05T09:29:13.326Z,954
2018-12-05T09:32:22.307Z,954
2018-12-05T09:35:28.386Z,953.9
2018-12-05T09:38:34.683Z,953.9
2018-12-05T09:41:40.642Z,954
2018-12-05T09:44:46.710Z,954
2018-12-05T09:47:52.680Z,954.1
2018-12-05T09:51:02.954Z,954.1
2018-12-05T09:54:10.182Z,954.2
2018-12-05T09:57:18.336Z,954.2
2018-12-05T10:00:24.707Z,954.1
2018-12-05T10:03:30.619Z,954.1
2018-12-05T10:06:36.629Z,954
2018-12-05T10:09:43.955Z,954.1
2018-12-05T10:12:50.034Z,954.1
2018-12-05T10:15:57.154Z,954
2018-12-05T10:19:03.113Z,954.1
2018-12-05T10:22:09.036Z,954.1
2018-12-05T10:25:15.896Z,954.1
2018-12-05T10:28:22.171Z,954
2018-12-05T10:31:28.291Z,954.2
2018-12-05T10:34:34.342Z,954.1
2018-12-05T10:37:40.274Z,954.1
2018-12-05T10:40:46.270Z,954.1
2018-12-05T10:43:54.472Z,954.1
2018-12-05T10:47:00.406Z,954.1
2018-12-05T10:50:06.394Z,954.1
2018-12-05T10:53:12.452Z,954.1
2018-12-05T10:56:18.407Z,954.2
2018-12-05T10:59:24.577Z,954.1
2018-12-05T11:02:31.575Z,954.1
2018-12-05T11:05:37.623Z,954.1
2018-12-05T11:08:43.581Z,954
2018-12-05T11:11:49.801Z,954
2018-12-05T11:14:55.835Z,953.9
2018-12-05T11:18:02.163Z,953.8
2018-12-05T11:21:08.198Z,953.9
2018-12-05T11:24:15.200Z,953.8
2018-12-05T11:27:21.254Z,953.8
2018-12-05T11:30:28.288Z,953.9
2018-12-05T11:33:36.514Z,953.9
2018-12-05T11:36:44.151Z,953.8
2018-12-05T11:39:52.784Z,953.8
2018-12-05T11:43:00.010Z,953.9
2018-12-05T11:46:07.251Z,953.9
2018-12-05T11:49:13.427Z,953.9
2018-12-05T11:52:20.821Z,953.9
2018-12-05T11:55:27.267Z,953.9
2018-12-05T11:58:33.790Z,954
2018-12-05T12:01:41.139Z,954
2018-12-05T12:04:48.442Z,954.1
2018-12-05T12:07:54.897Z,954.2
2018-12-05T12:11:01.671Z,954.1
2018-12-05T12:14:09.391Z,954.2
2018-12-05T12:17:15.509Z,954.2
2018-12-05T12:20:23.563Z,954.2
2018-12-05T12:23:32.877Z,954.2
2018-12-05T12:26:41.292Z,954.2
2018-12-05T12:29:48.245Z,954.2
2018-12-05T12:32:54.235Z,954.3
2018-12-05T12:36:00.160Z,954.2
2018-12-05T12:39:11.606Z,954.3
2018-12-05T12:42:22.674Z,954.3
2018-12-05T12:45:34.044Z,954.3
2018-12-05T12:48:41.367Z,954.4
2018-12-05T12:51:48.634Z,954.3
2018-12-05T12:54:56.840Z,954.4
2018-12-05T12:58:04.254Z,954.4
2018-12-05T13:01:17.223Z,954.4
2018-12-05T13:04:30.030Z,954.4
2018-12-05T13:07:39.444Z,954.4
2018-12-05T13:10:49.139Z,954.4
2018-12-05T13:13:56.222Z,954.5
2018-12-05T13:17:03.092Z,954.5
2018-12-05T13:20:14.497Z,954.4
2018-12-05T13:23:20.808Z,954.5
2018-12-05T13:26:29.937Z,954.6
2018-12-05T13:29:37.100Z,954.6
2018-12-05T13:32:45.642Z,954.6
2018-12-05T13:35:54.773Z,954.5
2018-12-05T13:39:03.203Z,954.6
2018-12-05T13:42:11.419Z,954.5
2018-12-05T13:45:17.628Z,954.4
2018-12-05T13:48:24.094Z,954.6
2018-12-05T13:51:31.422Z,954.5
2018-12-05T13:54:37.529Z,954.6
2018-12-05T13:57:43.806Z,954.5
2018-12-05T14:00:50.050Z,954.6
2018-12-05T14:03:56.174Z,954.5
2018-12-05T14:07:02.203Z,954.6
2018-12-05T14:10:08.073Z,954.6
2018-12-05T14:13:14.047Z,954.6
2018-12-05T14:16:21.154Z,954.7
2018-12-05T14:19:29.785Z,954.8
2018-12-05T14:22:36.907Z,954.8
2018-12-05T14:25:43.121Z,954.8
2018-12-05T14:28:49.129Z,954.9
2018-12-05T14:31:55.306Z,954.8
2018-12-05T14:35:01.212Z,954.9
2018-12-05T14:38:11.073Z,955
2018-12-05T14:41:17.661Z,955.1
2018-12-05T14:44:24.554Z,955.2
2018-12-05T14:47:30.517Z,955.2
2018-12-05T14:50:36.724Z,955.2
2018-12-05T14:53:43.051Z,955.3
2018-12-05T14:56:48.935Z,955.3
2018-12-05T14:59:54.975Z,955.2
2018-12-05T15:03:00.943Z,955.2
2018-12-05T15:06:08.626Z,955.1
2018-12-05T15:09:14.506Z,955.1
2018-12-05T15:12:20.647Z,955.1
2018-12-05T15:15:27.015Z,955.1
2018-12-05T15:18:32.962Z,955.1
2018-12-05T15:21:38.935Z,955.1
2018-12-05T15:24:45.060Z,955.2
2018-12-05T15:27:51.196Z,955.2
2018-12-05T15:30:57.124Z,955.2
2018-12-05T15:34:03.110Z,955.3
2018-12-05T15:37:09.250Z,955.3
2018-12-05T15:40:15.550Z,955.4
2018-12-05T15:43:22.566Z,955.3
2018-12-05T15:46:28.671Z,955.5
2018-12-05T15:49:36.003Z,955.5
2018-12-05T15:52:43.488Z,955.5
2018-12-05T15:55:50.679Z,955.5
2018-12-05T15:58:59.418Z,955.5
2018-12-05T16:02:05.428Z,955.5
2018-12-05T16:05:11.512Z,955.5
2018-12-05T16:08:17.650Z,955.5
2018-12-05T16:11:23.710Z,955.5
2018-12-05T16:14:29.610Z,955.5
2018-12-05T16:17:35.653Z,955.6
2018-12-05T16:20:41.525Z,955.5
2018-12-05T16:23:47.552Z,955.5
2018-12-05T16:26:53.432Z,955.6
2018-12-05T16:29:59.575Z,955.6
2018-12-05T16:33:05.729Z,955.6
2018-12-05T16:36:12.777Z,955.6
2018-12-05T16:39:18.842Z,955.6
2018-12-05T16:42:24.910Z,955.6
2018-12-05T16:45:30.904Z,955.8
2018-12-05T16:48:36.991Z,955.8
2018-12-05T16:51:43.022Z,955.8
2018-12-05T16:54:48.957Z,955.8
2018-12-05T16:57:55.202Z,955.8
2018-12-05T17:01:01.075Z,955.8
2018-12-05T17:04:07.059Z,955.9
2018-12-05T17:07:13.021Z,955.9
2018-12-05T17:10:18.905Z,955.9
2018-12-05T17:13:24.849Z,955.9
2018-12-05T17:16:31.011Z,956
2018-12-05T17:19:37.022Z,956
2018-12-05T17:22:42.986Z,956.1
2018-12-05T17:25:48.980Z,956.2
2018-12-05T17:28:55.042Z,956.1
2018-12-05T17:32:01.105Z,956.2
2018-12-05T17:35:07.167Z,956.2
2018-12-05T17:38:13.232Z,956.2
2018-12-05T17:41:19.295Z,956.3
2018-12-05T17:44:25.462Z,956.3
2018-12-05T17:47:31.541Z,956.2
2018-12-05T17:50:37.589Z,956.3
2018-12-05T17:53:43.704Z,956.2
2018-12-05T17:56:49.614Z,956.3
2018-12-05T17:59:55.557Z,956.3
2018-12-05T18:03:01.528Z,956.3
2018-12-05T18:06:07.640Z,956.3
2018-12-05T18:09:13.625Z,956.3
2018-12-05T18:12:19.649Z,956.3
2018-12-05T18:15:25.668Z,956.2
2018-12-05T18:18:31.625Z,956.3
2018-12-05T18:21:37.602Z,956.2
2018-12-05T18:24:43.640Z,956.3
2018-12-05T18:27:49.607Z,956.3
2018-12-05T18:30:55.666Z,956.3
2018-12-05T18:34:01.557Z,956.3
2018-12-05T18:37:07.689Z,956.3
2018-12-05T18:40:13.578Z,956.4
2018-12-05T18:43:19.512Z,956.5
2018-12-05T18:46:25.461Z,956.4
2018-12-05T18:49:31.439Z,956.4
2018-12-05T18:52:37.309Z,956.5
2018-12-05T18:55:43.243Z,956.5
2018-12-05T18:58:49.144Z,956.5
2018-12-05T19:01:55.066Z,956.5
2018-12-05T19:05:01.011Z,956.5
2018-12-05T19:08:06.972Z,956.5
2018-12-05T19:11:14.469Z,956.6
2018-12-05T19:14:20.526Z,956.7
2018-12-05T19:17:26.490Z,956.7
2018-12-05T19:20:32.519Z,956.7
2018-12-05T19:23:38.562Z,956.7
2018-12-05T19:26:44.574Z,956.7
2018-12-05T19:29:50.456Z,956.7
2018-12-05T19:32:56.403Z,956.8
2018-12-05T19:36:02.277Z,956.8
2018-12-05T19:39:08.212Z,956.8
2018-12-05T19:42:14.269Z,956.8
2018-12-05T19:45:20.331Z,956.9
2018-12-05T19:48:26.288Z,956.8
2018-12-05T19:51:32.226Z,956.8
2018-12-05T19:54:38.106Z,956.8
2018-12-05T19:57:44.067Z,956.7
2018-12-05T20:00:49.951Z,956.8
2018-12-05T20:03:55.990Z,956.8
2018-12-05T20:07:01.979Z,956.9
2018-12-05T20:10:08.146Z,956.9
2018-12-05T20:13:14.073Z,956.9
2018-12-05T20:16:19.949Z,957
2018-12-05T20:19:25.942Z,957
2018-12-05T20:22:33.535Z,957
2018-12-05T20:25:39.567Z,957
2018-12-05T20:28:45.710Z,957
2018-12-05T20:31:51.665Z,956.9
2018-12-05T20:34:57.627Z,956.9
2018-12-05T20:38:03.601Z,957
2018-12-05T20:41:09.495Z,957
2018-12-05T20:44:15.374Z,957
2018-12-05T20:47:21.365Z,957
2018-12-05T20:50:27.330Z,957
2018-12-05T20:53:33.279Z,957
2018-12-05T20:56:39.159Z,957.1
2018-12-05T20:59:45.094Z,957
2018-12-05T21:02:51.106Z,957
2018-12-05T21:05:56.996Z,957.1
2018-12-05T21:09:03.026Z,956.9
2018-12-05T21:12:08.990Z,956.9
2018-12-05T21:15:14.892Z,957
2018-12-05T21:18:20.857Z,957.1
2018-12-05T21:21:26.818Z,957
2018-12-05T21:24:32.770Z,957
2018-12-05T21:27:38.835Z,957
2018-12-05T21:30:44.855Z,957.1
2018-12-05T21:33:50.858Z,957
2018-12-05T21:36:56.916Z,957.1
2018-12-05T21:40:02.879Z,957.1
2018-12-05T21:43:08.846Z,957.2
2018-12-05T21:46:14.708Z,957.1
2018-12-05T21:49:20.656Z,957.1
2018-12-05T21:52:26.725Z,957.1
2018-12-05T21:55:32.679Z,957.1
2018-12-05T21:58:38.556Z,957.2
2018-12-05T22:01:44.488Z,957.1
2018-12-05T22:04:50.455Z,957.1
2018-12-05T22:07:56.323Z,957.2
2018-12-05T22:11:02.370Z,957.2
2018-12-05T22:14:08.292Z,957.2
2018-12-05T22:17:14.281Z,957.2
2018-12-05T22:20:20.253Z,957.2
2018-12-05T22:23:26.220Z,957.2
2018-12-05T22:26:32.176Z,957.1
2018-12-05T22:29:38.053Z,957.1
2018-12-05T22:32:43.964Z,957.2
2018-12-05T22:35:49.941Z,957.1
2018-12-05T22:38:55.901Z,957.1
2018-12-05T22:42:01.865Z,957.1
2018-12-05T22:45:07.802Z,957.1
2018-12-05T22:48:13.781Z,957.1
2018-12-05T22:51:19.845Z,957.1
2018-12-05T22:54:25.905Z,957.2
2018-12-05T22:57:31.919Z,957.1
2018-12-05T23:00:37.788Z,957.1
2018-12-05T23:03:43.781Z,957.2
2018-12-05T23:06:49.750Z,957.1
2018-12-05T23:09:55.732Z,957.2
2018-12-05T23:13:01.764Z,957.1
2018-12-05T23:16:07.641Z,957.2
2018-12-05T23:19:13.580Z,957.2
2018-12-05T23:22:19.538Z,957.2
2018-12-05T23:25:28.161Z,957.2
2018-12-05T23:28:34.127Z,957.2
2018-12-05T23:31:40.003Z,957.2
2018-12-05T23:34:45.942Z,957.1
2018-12-05T23:37:51.896Z,957.2
2018-12-05T23:40:57.781Z,957.1
2018-12-05T23:44:03.712Z,957.2
2018-12-05T23:47:09.773Z,957.3
2018-12-05T23:50:15.837Z,957.3
2018-12-05T23:53:21.715Z,957.3
2018-12-05T23:56:27.659Z,957.3
2018-12-05T23:59:33.620Z,957.3
